createdAt,value
2023-01-04T00:01:21.351Z,1.17
2023-01-04T00:03:48.244Z,1.20
2023-01-04T00:06:16.807Z,1.42
2023-01-04T00:08:46.349Z,1.27
2023-01-04T00:11:23.338Z,1.40
2023-01-04T00:13:56.718Z,1.13
2023-01-04T00:16:25.605Z,1.20
2023-01-04T00:18:53.652Z,1.10
2023-01-04T00:21:23.448Z,1.60
2023-01-04T00:23:53.058Z,1.65
2023-01-04T00:26:22.864Z,1.10
2023-01-04T00:28:56.980Z,1.20
2023-01-04T00:31:24.786Z,1.55
2023-01-04T00:33:59.635Z,1.10
2023-01-04T00:36:26.739Z,1.23
2023-01-04T00:39:14.574Z,1.10
2023-01-04T00:42:03.409Z,1.52
2023-01-04T00:44:32.986Z,1.40
2023-01-04T00:47:03.718Z,1.50
2023-01-04T00:49:31.116Z,1.40
2023-01-04T00:52:03.008Z,1.75
2023-01-04T00:54:29.707Z,1.50
2023-01-04T00:56:58.909Z,2.03
2023-01-04T00:59:25.567Z,1.42
2023-01-04T01:01:52.486Z,1.50
2023-01-04T01:04:23.858Z,1.80
2023-01-04T01:06:53.290Z,1.65
2023-01-04T01:09:23.177Z,1.25
2023-01-04T01:14:20.746Z,1.10
2023-01-04T01:16:57.280Z,1.05
2023-01-04T01:19:26.543Z,1.58
2023-01-04T01:21:53.273Z,1.35
2023-01-04T01:24:20.884Z,1.02
2023-01-04T01:26:50.077Z,1.27
2023-01-04T01:29:16.851Z,1.73
2023-01-04T01:31:43.609Z,1.13
2023-01-04T01:34:10.366Z,1.60
2023-01-04T01:36:39.317Z,1.27
2023-01-04T01:39:08.241Z,0.90
2023-01-04T01:41:36.044Z,1.55
2023-01-04T01:44:02.844Z,1.63
2023-01-04T01:46:49.150Z,1.73
2023-01-04T01:49:33.530Z,1.40
2023-01-04T01:52:03.776Z,0.90
2023-01-04T01:54:36.825Z,1.20
2023-01-04T01:57:07.244Z,1.45
2023-01-04T01:59:38.249Z,2.25
2023-01-04T02:02:05.177Z,1.10
2023-01-04T02:04:32.799Z,1.90
2023-01-04T02:07:01.104Z,1.45
2023-01-04T02:09:31.197Z,1.20
2023-01-04T02:12:00.398Z,1.45
2023-01-04T02:14:29.952Z,1.67
2023-01-04T02:17:04.170Z,1.33
2023-01-04T02:20:19.106Z,1.60
2023-01-04T02:23:08.209Z,1.42
2023-01-04T02:25:59.098Z,1.30
2023-01-04T02:28:57.811Z,1.05
2023-01-04T02:31:48.309Z,1.58
2023-01-04T02:34:29.770Z,1.08
2023-01-04T02:37:02.398Z,1.35
2023-01-04T02:40:02.980Z,1.48
2023-01-04T02:43:21.912Z,1.50
2023-01-04T02:46:00.103Z,2.45
2023-01-04T02:48:54.314Z,1.17
2023-01-04T02:51:38.488Z,0.90
2023-01-04T02:54:20.614Z,1.15
2023-01-04T02:57:05.603Z,1.08
2023-01-04T02:59:32.744Z,1.50
2023-01-04T03:02:40.331Z,1.40
2023-01-04T03:05:33.776Z,1.00
2023-01-04T03:08:12.548Z,1.08
2023-01-04T03:10:49.239Z,0.98
2023-01-04T03:13:26.361Z,0.70
2023-01-04T03:15:58.946Z,1.27
2023-01-04T03:18:33.299Z,1.15
2023-01-04T03:21:03.343Z,0.90
2023-01-04T03:23:54.218Z,1.00
2023-01-04T03:26:49.726Z,1.00
2023-01-04T03:29:49.765Z,0.75
2023-01-04T03:35:23.785Z,0.98
2023-01-04T03:38:32.018Z,1.08
2023-01-04T03:41:31.267Z,0.65
2023-01-04T03:44:25.343Z,1.02
2023-01-04T03:47:14.875Z,0.95
2023-01-04T03:49:50.164Z,1.15
2023-01-04T03:52:18.215Z,0.90
2023-01-04T03:54:50.239Z,0.70
2023-01-04T03:57:17.892Z,0.70
2023-01-04T04:00:03.028Z,0.80
2023-01-04T04:02:31.135Z,1.00
2023-01-04T04:05:16.256Z,0.90
2023-01-04T04:08:04.254Z,0.63
2023-01-04T04:10:30.894Z,0.60
2023-01-04T04:12:57.690Z,0.55
2023-01-04T04:15:24.346Z,0.90
2023-01-04T04:17:51.074Z,1.13
2023-01-04T04:20:22.398Z,0.80
2023-01-04T04:22:51.299Z,1.30
2023-01-04T04:25:17.953Z,0.50
2023-01-04T04:27:44.587Z,0.65
2023-01-04T04:30:14.012Z,0.82
2023-01-04T04:32:40.667Z,0.65
2023-01-04T04:35:07.714Z,0.73
2023-01-04T04:37:35.024Z,0.65
2023-01-04T04:40:02.102Z,0.50
2023-01-04T04:42:28.805Z,0.70
2023-01-04T04:44:55.684Z,0.60
2023-01-04T04:47:24.779Z,0.55
2023-01-04T04:49:52.028Z,0.50
2023-01-04T04:52:21.161Z,0.63
2023-01-04T04:54:47.815Z,0.63
2023-01-04T04:57:16.984Z,0.60
2023-01-04T04:59:43.659Z,0.30
2023-01-04T05:02:10.449Z,0.60
2023-01-04T05:04:40.121Z,0.55
2023-01-04T05:07:12.269Z,0.30
2023-01-04T05:09:39.376Z,0.52
2023-01-04T05:12:24.601Z,0.40
2023-01-04T05:14:51.288Z,0.55
2023-01-04T05:17:17.952Z,0.55
2023-01-04T05:19:44.627Z,0.45
2023-01-04T05:22:11.287Z,0.40
2023-01-04T05:24:37.979Z,0.40
2023-01-04T05:27:04.687Z,0.52
2023-01-04T05:29:50.156Z,0.30
2023-01-04T05:32:19.385Z,0.43
2023-01-04T05:34:48.277Z,0.30
2023-01-04T05:37:17.279Z,0.40
2023-01-04T05:39:43.913Z,0.32
2023-01-04T05:42:25.908Z,0.30
2023-01-04T05:44:55.813Z,0.30
2023-01-04T05:49:52.197Z,0.30
2023-01-04T05:52:19.996Z,0.55
2023-01-04T05:54:47.198Z,0.40
2023-01-04T05:57:14.135Z,0.20
2023-01-04T05:59:43.392Z,0.22
2023-01-04T06:02:26.459Z,0.30
2023-01-04T06:04:58.741Z,0.50
2023-01-04T06:07:27.237Z,0.40
2023-01-04T06:09:54.243Z,0.22
2023-01-04T06:12:25.538Z,0.20
2023-01-04T06:14:52.195Z,0.30
2023-01-04T06:17:21.180Z,0.40
2023-01-04T06:19:47.879Z,0.40
2023-01-04T06:22:16.763Z,0.40
2023-01-04T06:24:43.401Z,0.60
2023-01-04T06:27:13.135Z,0.30
2023-01-04T06:29:39.778Z,0.38
2023-01-04T06:32:06.516Z,0.50
2023-01-04T06:34:33.163Z,0.25
2023-01-04T06:37:00.128Z,0.30
2023-01-04T06:39:27.459Z,0.30
2023-01-04T06:41:54.175Z,0.20
2023-01-04T06:44:21.031Z,0.30
2023-01-04T06:46:47.662Z,0.30
2023-01-04T06:49:16.508Z,0.20
2023-01-04T06:51:45.785Z,0.35
2023-01-04T06:54:12.874Z,0.20
2023-01-04T06:56:40.644Z,0.20
2023-01-04T06:59:12.606Z,0.40
2023-01-04T07:01:41.834Z,0.30
2023-01-04T07:04:11.079Z,0.30
2023-01-04T07:06:37.811Z,0.50
2023-01-04T07:09:04.519Z,0.20
2023-01-04T07:11:31.218Z,0.50
2023-01-04T07:13:57.925Z,0.43
2023-01-04T07:16:24.680Z,0.38
2023-01-04T07:18:51.423Z,0.40
2023-01-04T07:21:18.098Z,0.40
2023-01-04T07:23:44.963Z,0.30
2023-01-04T07:26:14.082Z,0.25
2023-01-04T07:28:59.506Z,0.30
2023-01-04T07:31:26.282Z,0.40
2023-01-04T07:33:53.027Z,0.20
2023-01-04T07:36:19.690Z,0.30
2023-01-04T07:38:46.356Z,0.47
2023-01-04T07:41:13.086Z,0.30
2023-01-04T07:43:39.737Z,0.20
2023-01-04T07:46:06.643Z,0.30
2023-01-04T07:48:33.461Z,0.32
2023-01-04T07:51:02.784Z,0.57
2023-01-04T07:53:29.554Z,0.25
2023-01-04T07:55:57.847Z,0.30
2023-01-04T07:58:32.989Z,0.20
2023-01-04T08:01:11.295Z,0.30
2023-01-04T08:03:38.061Z,0.38
2023-01-04T08:06:08.827Z,0.35
2023-01-04T08:08:35.615Z,0.20
2023-01-04T08:11:04.148Z,0.20
2023-01-04T08:13:30.925Z,0.38
2023-01-04T08:15:57.867Z,0.30
2023-01-04T08:18:24.724Z,0.30
2023-01-04T08:21:00.833Z,0.10
2023-01-04T08:23:27.492Z,0.30
2023-01-04T08:25:54.180Z,0.20
2023-01-04T08:28:21.202Z,0.40
2023-01-04T08:30:47.976Z,0.30
2023-01-04T08:33:18.848Z,0.20
2023-01-04T08:35:47.793Z,0.20
2023-01-04T08:38:56.189Z,0.43
2023-01-04T08:41:23.515Z,0.30
2023-01-04T08:43:53.313Z,0.30
2023-01-04T08:46:20.024Z,0.30
2023-01-04T08:48:46.776Z,0.10
2023-01-04T08:51:15.665Z,0.30
2023-01-04T08:53:46.830Z,0.20
2023-01-04T08:56:13.539Z,0.30
2023-01-04T08:58:40.561Z,0.20
2023-01-04T09:01:09.812Z,0.28
2023-01-04T09:03:37.886Z,0.28
2023-01-04T09:06:14.431Z,0.20
2023-01-04T09:08:44.309Z,0.32
2023-01-04T09:11:16.833Z,0.38
2023-01-04T09:13:44.967Z,0.20
2023-01-04T09:16:17.680Z,0.40
2023-01-04T09:18:45.491Z,0.30
2023-01-04T09:21:17.719Z,0.20
2023-01-04T09:23:45.199Z,0.20
2023-01-04T09:26:15.836Z,0.30
2023-01-04T09:28:43.296Z,0.22
2023-01-04T09:31:15.624Z,0.30
2023-01-04T09:34:13.436Z,0.40
2023-01-04T09:36:32.567Z,0.30
2023-01-04T09:38:59.210Z,0.40
2023-01-04T09:41:28.903Z,0.45
2023-01-04T09:43:55.566Z,0.30
2023-01-04T09:46:29.929Z,0.47
2023-01-04T09:49:18.268Z,0.28
2023-01-04T09:52:09.141Z,0.20
2023-01-04T09:55:04.758Z,0.40
2023-01-04T09:57:55.721Z,0.38
2023-01-04T10:00:43.398Z,0.35
2023-01-04T10:03:13.986Z,0.30
2023-01-04T10:05:43.221Z,0.40
2023-01-04T10:08:19.817Z,0.30
2023-01-04T10:10:49.631Z,0.40
2023-01-04T10:13:43.943Z,0.45
2023-01-04T10:17:11.009Z,0.30
2023-01-04T10:23:06.390Z,0.30
2023-01-04T10:26:00.945Z,0.70
2023-01-04T10:28:54.859Z,0.40
2023-01-04T10:31:39.623Z,0.60
2023-01-04T10:34:27.163Z,0.43
2023-01-04T10:37:14.176Z,0.30
2023-01-04T10:39:44.426Z,0.77
2023-01-04T10:42:30.915Z,0.60
2023-01-04T10:45:17.738Z,0.30
2023-01-04T10:47:49.614Z,0.40
2023-01-04T10:50:41.124Z,0.52
2023-01-04T10:53:27.199Z,0.28
2023-01-04T10:56:25.677Z,0.52
2023-01-04T11:01:47.737Z,0.50
2023-01-04T11:04:19.995Z,0.38
2023-01-04T11:07:18.950Z,0.50
2023-01-04T11:09:58.975Z,0.40
2023-01-04T11:12:26.601Z,0.50
2023-01-04T11:14:53.946Z,0.52
2023-01-04T11:17:23.321Z,0.45
2023-01-04T11:19:50.231Z,0.38
2023-01-04T11:22:30.196Z,0.40
2023-01-04T11:28:00.980Z,0.30
2023-01-04T11:30:42.515Z,0.57
2023-01-04T11:33:19.090Z,0.50
2023-01-04T11:35:48.314Z,0.40
2023-01-04T11:38:21.571Z,0.30
2023-01-04T11:41:15.664Z,0.38
2023-01-04T11:44:00.572Z,0.30
2023-01-04T11:46:29.149Z,0.45
2023-01-04T11:48:58.804Z,0.28
2023-01-04T11:51:36.137Z,0.70
2023-01-04T11:54:16.928Z,0.30
2023-01-04T11:57:11.660Z,0.22
2023-01-04T11:59:41.568Z,0.40
2023-01-04T12:05:28.282Z,0.40
2023-01-04T12:07:56.096Z,0.50
2023-01-04T12:10:26.648Z,0.30
2023-01-04T12:12:59.833Z,0.38
2023-01-04T12:15:51.204Z,0.22
2023-01-04T12:18:29.210Z,0.50
2023-01-04T12:21:00.959Z,0.40
2023-01-04T12:23:30.260Z,0.65
2023-01-04T12:25:57.251Z,0.35
2023-01-04T12:28:42.946Z,0.63
2023-01-04T12:31:35.703Z,0.30
2023-01-04T12:34:25.933Z,0.30
2023-01-04T12:36:57.428Z,0.40
2023-01-04T12:39:41.888Z,0.30
2023-01-04T12:42:13.261Z,0.20
2023-01-04T12:44:43.397Z,0.20
2023-01-04T12:47:37.810Z,0.25
2023-01-04T12:50:10.856Z,0.35
2023-01-04T12:55:31.654Z,0.40
2023-01-04T12:58:00.027Z,0.30
2023-01-04T13:00:51.855Z,0.22
2023-01-04T13:03:18.710Z,0.32
2023-01-04T13:06:05.609Z,0.20
2023-01-04T13:08:38.811Z,0.10
2023-01-04T13:11:45.838Z,0.60
2023-01-04T13:14:23.541Z,0.30
2023-01-04T13:16:56.208Z,0.30
2023-01-04T13:19:28.681Z,0.40
2023-01-04T13:22:00.537Z,0.30
2023-01-04T13:24:35.581Z,0.20
2023-01-04T13:27:07.841Z,0.45
2023-01-04T13:29:36.275Z,0.10
2023-01-04T13:32:11.522Z,0.20
2023-01-04T13:34:41.397Z,0.30
2023-01-04T13:39:41.175Z,0.30
2023-01-04T13:42:24.893Z,0.30
2023-01-04T13:45:21.341Z,0.35
2023-01-04T13:47:54.110Z,0.25
2023-01-04T13:50:37.374Z,0.40
2023-01-04T13:53:07.946Z,0.40
2023-01-04T13:55:37.296Z,0.20
2023-01-04T13:58:07.494Z,0.40
2023-01-04T14:00:46.435Z,0.25
2023-01-04T14:03:13.342Z,0.30
2023-01-04T14:05:48.493Z,0.47
2023-01-04T14:08:27.517Z,0.30
2023-01-04T14:10:54.280Z,0.47
2023-01-04T14:13:22.639Z,0.40
2023-01-04T14:16:36.372Z,0.40
2023-01-04T14:19:31.950Z,0.50
2023-01-04T14:21:58.663Z,0.30
2023-01-04T14:27:42.786Z,0.38
2023-01-04T14:30:15.198Z,0.30
2023-01-04T14:32:52.139Z,0.30
2023-01-04T14:35:19.125Z,0.47
2023-01-04T14:37:46.805Z,0.30
2023-01-04T14:40:24.336Z,0.30
2023-01-04T14:42:51.031Z,0.20
2023-01-04T14:45:17.725Z,0.30
2023-01-04T14:47:44.435Z,0.20
2023-01-04T14:50:13.763Z,0.30
2023-01-04T14:52:41.101Z,0.25
2023-01-04T14:55:08.176Z,0.20
2023-01-04T14:57:38.088Z,0.22
2023-01-04T15:02:34.324Z,0.13
2023-01-04T15:05:01.279Z,0.50
2023-01-04T15:07:39.616Z,0.50
2023-01-04T15:10:26.416Z,0.10
2023-01-04T15:12:53.818Z,0.95
2023-01-04T15:15:20.823Z,0.20
2023-01-04T15:17:48.128Z,0.40
2023-01-04T15:20:14.801Z,0.70
2023-01-04T15:22:41.796Z,0.57
2023-01-04T15:25:10.221Z,0.65
2023-01-04T15:27:41.965Z,0.70
2023-01-04T15:30:11.908Z,0.40
2023-01-04T15:32:40.093Z,0.35
2023-01-04T15:35:07.088Z,0.30
2023-01-04T15:37:36.070Z,0.30
2023-01-04T15:40:03.911Z,0.53
2023-01-04T15:42:51.919Z,0.38
2023-01-04T15:45:18.672Z,0.52
2023-01-04T15:47:45.391Z,1.05
2023-01-04T15:50:12.058Z,0.80
2023-01-04T15:52:38.722Z,0.60
2023-01-04T15:55:05.972Z,0.52
2023-01-04T15:57:32.633Z,0.38
2023-01-04T15:59:59.396Z,0.60
2023-01-04T16:02:26.726Z,0.52
2023-01-04T16:04:53.595Z,0.43
2023-01-04T16:07:20.308Z,0.68
2023-01-04T16:09:51.768Z,0.70
2023-01-04T16:12:39.498Z,0.43
2023-01-04T16:15:10.348Z,0.75
2023-01-04T16:17:39.793Z,0.68
2023-01-04T16:20:07.422Z,0.43
2023-01-04T16:22:36.725Z,0.80
2023-01-04T16:25:11.610Z,0.38
2023-01-04T16:27:41.507Z,0.50
2023-01-04T16:30:12.204Z,0.80
2023-01-04T16:32:43.732Z,0.52
2023-01-04T16:35:11.498Z,0.80
2023-01-04T16:37:38.584Z,0.63
2023-01-04T16:40:07.739Z,0.98
2023-01-04T16:42:36.923Z,0.90
2023-01-04T16:45:04.248Z,0.70
2023-01-04T16:47:38.914Z,1.00
2023-01-04T16:50:07.124Z,1.00
2023-01-04T16:52:35.950Z,0.85
2023-01-04T16:55:06.144Z,0.85
2023-01-04T16:57:32.801Z,0.70
2023-01-04T16:59:59.475Z,0.75
2023-01-04T17:02:26.209Z,0.95
2023-01-04T17:04:59.390Z,0.75
2023-01-04T17:07:33.139Z,0.60
2023-01-04T17:10:01.026Z,0.68
2023-01-04T17:15:41.786Z,0.55
2023-01-04T17:18:01.307Z,0.55
2023-01-04T17:20:30.452Z,0.52
2023-01-04T17:22:57.191Z,0.55
2023-01-04T17:25:23.871Z,0.57
2023-01-04T17:27:50.593Z,0.80
2023-01-04T17:30:19.741Z,0.60
2023-01-04T17:32:46.499Z,1.02
2023-01-04T17:35:13.130Z,0.93
2023-01-04T17:37:39.782Z,1.20
2023-01-04T17:40:06.914Z,0.95
2023-01-04T17:42:33.924Z,1.10
2023-01-04T17:45:00.643Z,1.00
2023-01-04T17:47:29.894Z,1.40
2023-01-04T17:49:56.655Z,0.55
2023-01-04T17:52:30.597Z,1.02
2023-01-04T17:54:58.259Z,1.30
2023-01-04T17:57:24.989Z,1.80
2023-01-04T17:59:51.819Z,1.50
2023-01-04T18:02:18.607Z,1.63
2023-01-04T18:04:45.468Z,2.00
2023-01-04T18:07:15.021Z,2.05
2023-01-04T18:09:41.791Z,1.73
2023-01-04T18:12:08.596Z,1.85
2023-01-04T18:14:35.275Z,1.90
2023-01-04T18:17:01.987Z,2.22
2023-01-04T18:19:30.415Z,2.35
2023-01-04T18:21:57.770Z,2.38
2023-01-04T18:24:38.156Z,1.77
2023-01-04T18:27:24.274Z,3.25
2023-01-04T18:29:52.828Z,2.30
2023-01-04T18:32:22.854Z,2.42
2023-01-04T18:34:49.550Z,2.15
2023-01-04T18:37:19.414Z,2.63
2023-01-04T18:39:47.393Z,2.50
2023-01-04T18:42:16.323Z,2.63
2023-01-04T18:44:48.551Z,3.33
2023-01-04T18:47:20.776Z,2.70
2023-01-04T18:49:48.539Z,2.47
2023-01-04T18:52:16.336Z,2.42
2023-01-04T18:54:47.642Z,2.22
2023-01-04T18:57:18.464Z,2.80
2023-01-04T18:59:49.748Z,3.78
2023-01-04T19:02:19.545Z,2.72
2023-01-04T19:04:46.606Z,3.00
2023-01-04T19:07:15.958Z,2.80
2023-01-04T19:09:43.191Z,2.58
2023-01-04T19:12:14.845Z,2.17
2023-01-04T19:14:42.026Z,2.15
2023-01-04T19:17:11.114Z,2.55
2023-01-04T19:19:40.121Z,3.90
2023-01-04T19:22:06.816Z,2.67
2023-01-04T19:24:33.520Z,3.03
2023-01-04T19:27:05.095Z,2.53
2023-01-04T19:29:32.620Z,3.10
2023-01-04T19:31:59.382Z,3.17
2023-01-04T19:34:26.096Z,2.47
2023-01-04T19:36:52.761Z,2.95
2023-01-04T19:39:21.644Z,2.30
2023-01-04T19:41:48.336Z,3.20
2023-01-04T19:44:17.422Z,2.35
2023-01-04T19:46:44.109Z,2.90
2023-01-04T19:49:15.234Z,2.35
2023-01-04T19:51:45.135Z,2.58
2023-01-04T19:54:19.955Z,3.30
2023-01-04T19:56:51.481Z,2.95
2023-01-04T19:59:18.149Z,3.10
2023-01-04T20:01:47.341Z,3.15
2023-01-04T20:04:14.175Z,3.22
2023-01-04T20:06:40.868Z,2.85
2023-01-04T20:09:09.972Z,2.53
2023-01-04T20:11:39.474Z,3.08
2023-01-04T20:14:06.248Z,2.30
2023-01-04T20:16:32.990Z,2.70
2023-01-04T20:18:59.705Z,2.80
2023-01-04T20:21:26.487Z,2.88
2023-01-04T20:23:53.234Z,2.67
2023-01-04T20:26:20.151Z,2.65
2023-01-04T20:28:49.240Z,2.85
2023-01-04T20:31:19.617Z,2.60
2023-01-04T20:33:47.624Z,1.85
2023-01-04T20:36:30.122Z,3.00
2023-01-04T20:38:59.389Z,3.13
2023-01-04T20:41:29.273Z,2.40
2023-01-04T20:46:32.676Z,2.35
2023-01-04T20:49:02.772Z,2.67
2023-01-04T20:51:30.280Z,2.47
2023-01-04T20:54:00.751Z,2.40
2023-01-04T20:56:29.851Z,2.33
2023-01-04T20:58:56.711Z,2.30
2023-01-04T21:01:25.012Z,2.22
2023-01-04T21:03:56.517Z,2.40
2023-01-04T21:06:24.671Z,2.45
2023-01-04T21:08:54.584Z,2.40
2023-01-04T21:13:50.120Z,3.10
2023-01-04T21:16:16.848Z,3.13
2023-01-04T21:18:43.655Z,2.20
2023-01-04T21:21:16.877Z,2.10
2023-01-04T21:23:46.653Z,2.33
2023-01-04T21:28:43.648Z,1.98
2023-01-04T21:31:19.484Z,2.03
2023-01-04T21:33:46.709Z,2.22
2023-01-04T21:36:24.859Z,1.80
2023-01-04T21:38:53.253Z,1.90
2023-01-04T21:41:24.818Z,1.55
2023-01-04T21:43:53.980Z,2.10
2023-01-04T21:46:24.578Z,2.05
2023-01-04T21:49:01.763Z,1.92
2023-01-04T21:51:29.867Z,2.45
2023-01-04T21:53:57.896Z,2.00
2023-01-04T21:56:27.447Z,2.22
2023-01-04T21:58:54.232Z,2.35
2023-01-04T22:01:24.357Z,2.58
2023-01-04T22:03:52.233Z,1.88
2023-01-04T22:06:20.594Z,1.92
2023-01-04T22:08:47.347Z,1.83
2023-01-04T22:11:16.556Z,1.90
2023-01-04T22:13:44.514Z,2.15
2023-01-04T22:16:16.028Z,2.28
2023-01-04T22:18:50.524Z,2.28
2023-01-04T22:21:23.681Z,1.90
2023-01-04T22:23:51.044Z,2.75
2023-01-04T22:26:17.970Z,1.75
2023-01-04T22:28:45.269Z,1.95
2023-01-04T22:31:13.741Z,2.10
2023-01-04T22:33:41.555Z,1.92
2023-01-04T22:36:21.633Z,2.30
2023-01-04T22:38:50.200Z,2.20
2023-01-04T22:41:18.947Z,2.78
2023-01-04T22:43:46.182Z,1.80
2023-01-04T22:46:15.930Z,2.60
2023-01-04T22:48:42.884Z,2.78
2023-01-04T22:51:12.386Z,2.75
2023-01-04T22:53:41.190Z,1.98
2023-01-04T22:56:21.631Z,2.38
2023-01-04T22:58:55.175Z,1.98
2023-01-04T23:01:28.148Z,2.45
2023-01-04T23:03:55.885Z,2.42
2023-01-04T23:06:26.579Z,2.38
2023-01-04T23:09:01.366Z,2.22
2023-01-04T23:11:34.371Z,1.95
2023-01-04T23:14:05.884Z,2.35
2023-01-04T23:16:34.896Z,2.00
2023-01-04T23:19:03.143Z,2.72
2023-01-04T23:21:30.565Z,2.28
2023-01-04T23:23:57.493Z,2.40
2023-01-04T23:26:25.559Z,2.50
2023-01-04T23:28:52.634Z,2.65
2023-01-04T23:31:21.779Z,3.03
2023-01-04T23:33:53.095Z,2.50
2023-01-04T23:36:22.650Z,2.35
2023-01-04T23:38:51.746Z,2.35
2023-01-04T23:41:18.819Z,2.13
2023-01-04T23:43:45.948Z,2.85
2023-01-04T23:46:15.868Z,2.95
2023-01-04T23:48:44.965Z,1.95
2023-01-04T23:51:15.015Z,2.27
2023-01-04T23:53:41.799Z,2.33
2023-01-04T23:56:16.040Z,2.80
2023-01-04T23:58:45.426Z,2.78
